createdAt,value
2022-11-05T00:01:32.780Z,86.36
2022-11-05T00:04:25.588Z,85.81
2022-11-05T00:07:21.658Z,85.37
2022-11-05T00:09:59.974Z,85.48
2022-11-05T00:12:48.709Z,85.54
2022-11-05T00:15:38.175Z,85.67
2022-11-05T00:18:09.508Z,85.60
2022-11-05T00:20:40.453Z,85.19
2022-11-05T00:23:29.276Z,85.25
2022-11-05T00:26:01.986Z,85.27
2022-11-05T00:28:33.539Z,85.39
2022-11-05T00:31:09.778Z,85.58
2022-11-05T00:33:41.972Z,85.25
2022-11-05T00:36:13.838Z,85.28
2022-11-05T00:38:44.826Z,85.01
2022-11-05T00:41:15.652Z,85.17
2022-11-05T00:44:03.933Z,85.42
2022-11-05T00:46:34.871Z,85.49
2022-11-05T00:49:23.238Z,85.86
2022-11-05T00:52:14.213Z,86.02
2022-11-05T00:54:47.570Z,86.02
2022-11-05T00:57:18.450Z,86.12
2022-11-05T00:59:49.715Z,86.22
2022-11-05T01:02:20.666Z,86.16
2022-11-05T01:04:50.172Z,85.74
2022-11-05T01:07:21.390Z,85.62
2022-11-05T01:09:52.336Z,85.83
2022-11-05T01:12:21.871Z,86.09
2022-11-05T01:14:53.009Z,85.83
2022-11-05T01:17:24.282Z,85.71
2022-11-05T01:19:55.538Z,85.78
2022-11-05T01:22:26.433Z,85.68
2022-11-05T01:24:58.013Z,85.44
2022-11-05T01:27:29.079Z,85.48
2022-11-05T01:29:59.981Z,85.48
2022-11-05T01:32:31.336Z,85.72
2022-11-05T01:35:02.485Z,85.93
2022-11-05T01:37:33.370Z,86.14
2022-11-05T01:40:04.680Z,86.26
2022-11-05T01:42:36.102Z,86.42
2022-11-05T01:45:15.341Z,86.38
2022-11-05T01:47:52.624Z,86.28
2022-11-05T01:50:44.315Z,86.36
2022-11-05T01:53:27.882Z,86.50
2022-11-05T01:56:03.846Z,86.62
2022-11-05T01:58:39.208Z,86.75
2022-11-05T02:01:10.255Z,86.68
2022-11-05T02:03:43.039Z,86.80
2022-11-05T02:06:16.053Z,86.77
2022-11-05T02:08:57.103Z,86.87
2022-11-05T02:11:28.380Z,86.99
2022-11-05T02:13:59.469Z,86.65
2022-11-05T02:16:42.362Z,86.59
2022-11-05T02:19:40.293Z,86.47
2022-11-05T02:22:36.461Z,86.45
2022-11-05T02:25:25.023Z,86.37
2022-11-05T02:28:21.985Z,86.37
2022-11-05T02:30:58.345Z,86.39
2022-11-05T02:33:41.921Z,86.44
2022-11-05T02:36:29.661Z,86.66
2022-11-05T02:39:22.401Z,86.58
2022-11-05T02:42:05.231Z,86.59
2022-11-05T02:44:44.366Z,86.67
2022-11-05T02:47:22.250Z,86.79
2022-11-05T02:50:02.460Z,86.71
2022-11-05T02:52:38.509Z,86.77
2022-11-05T02:55:18.192Z,86.75
2022-11-05T02:57:49.940Z,86.83
2022-11-05T03:00:44.833Z,86.82
2022-11-05T03:03:22.520Z,86.86
2022-11-05T03:06:18.794Z,86.85
2022-11-05T03:09:01.275Z,86.92
2022-11-05T03:11:38.067Z,86.94
2022-11-05T03:14:17.683Z,86.99
2022-11-05T03:16:54.122Z,86.91
2022-11-05T03:19:36.043Z,87.01
2022-11-05T03:22:13.069Z,86.98
2022-11-05T03:24:50.210Z,86.87
2022-11-05T03:27:26.497Z,86.94
2022-11-05T03:30:03.099Z,87.03
2022-11-05T03:32:38.414Z,87.08
2022-11-05T03:35:13.575Z,87.10
2022-11-05T03:37:47.417Z,87.12
2022-11-05T03:40:19.976Z,87.18
2022-11-05T03:42:57.846Z,87.19
2022-11-05T03:45:33.885Z,87.29
2022-11-05T03:48:08.571Z,87.36
2022-11-05T03:50:46.531Z,87.39
2022-11-05T03:53:22.263Z,87.37
2022-11-05T03:55:59.928Z,87.34
2022-11-05T03:58:32.205Z,87.55
2022-11-05T04:01:04.600Z,87.48
2022-11-05T04:03:37.175Z,87.48
2022-11-05T04:06:28.311Z,87.43
2022-11-05T04:09:16.531Z,87.54
2022-11-05T04:12:04.825Z,87.54
2022-11-05T04:14:36.016Z,87.64
2022-11-05T04:17:10.117Z,87.67
2022-11-05T04:20:08.590Z,87.61
2022-11-05T04:22:57.231Z,87.71
2022-11-05T04:25:28.225Z,87.76
2022-11-05T04:28:01.329Z,87.83
2022-11-05T04:30:32.154Z,87.74
2022-11-05T04:33:05.978Z,87.78
2022-11-05T04:35:38.984Z,87.84
2022-11-05T04:38:12.760Z,87.97
2022-11-05T04:40:44.137Z,87.96
2022-11-05T04:43:17.631Z,88.03
2022-11-05T04:45:48.951Z,87.98
2022-11-05T04:48:19.731Z,87.88
2022-11-05T04:50:50.574Z,87.97
2022-11-05T04:53:21.333Z,87.98
2022-11-05T04:55:52.234Z,87.91
2022-11-05T04:58:23.087Z,88.02
2022-11-05T05:00:53.996Z,88.08
2022-11-05T05:03:23.940Z,88.06
2022-11-05T05:05:53.997Z,88.13
2022-11-05T05:08:25.411Z,88.29
2022-11-05T05:10:56.965Z,88.38
2022-11-05T05:13:28.109Z,88.38
2022-11-05T05:15:57.305Z,88.50
2022-11-05T05:18:29.167Z,88.45
2022-11-05T05:21:19.256Z,88.57
2022-11-05T05:23:49.443Z,88.48
2022-11-05T05:26:20.379Z,88.59
2022-11-05T05:28:51.280Z,88.60
2022-11-05T05:31:23.045Z,88.55
2022-11-05T05:33:55.848Z,88.52
2022-11-05T05:36:27.299Z,88.55
2022-11-05T05:38:58.512Z,88.50
2022-11-05T05:41:29.586Z,88.56
2022-11-05T05:44:00.563Z,88.64
2022-11-05T05:46:31.538Z,88.58
2022-11-05T05:49:05.524Z,88.58
2022-11-05T05:51:44.199Z,88.67
2022-11-05T05:54:15.725Z,88.69
2022-11-05T05:56:47.455Z,88.67
2022-11-05T05:59:18.400Z,88.84
2022-11-05T06:01:49.380Z,88.77
2022-11-05T06:04:20.794Z,88.68
2022-11-05T06:06:51.840Z,88.63
2022-11-05T06:09:23.179Z,88.73
2022-11-05T06:11:54.170Z,88.80
2022-11-05T06:14:25.306Z,88.89
2022-11-05T06:16:56.410Z,88.83
2022-11-05T06:19:27.599Z,89.00
2022-11-05T06:21:57.026Z,89.11
2022-11-05T06:24:27.927Z,89.18
2022-11-05T06:26:58.836Z,89.26
2022-11-05T06:29:29.865Z,89.30
2022-11-05T06:31:59.367Z,89.49
2022-11-05T06:34:30.193Z,89.45
2022-11-05T06:37:01.086Z,89.55
2022-11-05T06:39:31.886Z,89.59
2022-11-05T06:42:17.818Z,89.57
2022-11-05T06:44:49.796Z,89.59
2022-11-05T06:47:21.080Z,89.58
2022-11-05T06:49:52.258Z,89.55
2022-11-05T06:52:23.632Z,89.71
2022-11-05T06:54:54.543Z,89.60
2022-11-05T06:57:25.477Z,89.62
2022-11-05T07:00:01.379Z,89.46
2022-11-05T07:02:34.251Z,89.27
2022-11-05T07:05:05.230Z,89.30
2022-11-05T07:07:36.250Z,89.20
2022-11-05T07:10:07.072Z,89.01
2022-11-05T07:12:37.943Z,89.06
2022-11-05T07:15:11.533Z,88.91
2022-11-05T07:17:42.842Z,88.65
2022-11-05T07:20:14.446Z,88.38
2022-11-05T07:23:01.614Z,88.29
2022-11-05T07:25:34.102Z,88.23
2022-11-05T07:28:05.823Z,88.06
2022-11-05T07:30:37.539Z,87.80
2022-11-05T07:33:08.830Z,87.95
2022-11-05T07:35:39.973Z,87.98
2022-11-05T07:38:09.498Z,88.14
2022-11-05T07:40:40.253Z,88.13
2022-11-05T07:43:10.062Z,87.87
2022-11-05T07:45:41.169Z,87.49
2022-11-05T07:48:12.439Z,87.23
2022-11-05T07:50:43.298Z,86.42
2022-11-05T07:53:15.662Z,86.36
2022-11-05T07:55:47.385Z,86.53
2022-11-05T07:58:18.629Z,85.74
2022-11-05T08:00:49.791Z,85.15
2022-11-05T08:03:21.352Z,85.02
2022-11-05T08:05:52.700Z,84.73
2022-11-05T08:08:23.484Z,84.68
2022-11-05T08:10:52.878Z,84.65
2022-11-05T08:13:23.901Z,84.62
2022-11-05T08:15:57.369Z,84.78
2022-11-05T08:18:31.845Z,84.32
2022-11-05T08:21:05.337Z,84.41
2022-11-05T08:23:36.335Z,84.50
2022-11-05T08:26:08.091Z,84.23
2022-11-05T08:28:39.176Z,84.13
2022-11-05T08:31:10.227Z,84.40
2022-11-05T08:33:41.202Z,83.98
2022-11-05T08:36:12.047Z,83.93
2022-11-05T08:38:42.798Z,83.25
2022-11-05T08:41:13.586Z,83.08
2022-11-05T08:43:44.517Z,82.25
2022-11-05T08:46:15.396Z,82.14
2022-11-05T08:48:46.122Z,82.32
2022-11-05T08:51:17.156Z,82.82
2022-11-05T08:53:48.345Z,82.66
2022-11-05T08:56:19.602Z,81.66
2022-11-05T08:58:48.834Z,81.39
2022-11-05T09:01:19.748Z,81.73
2022-11-05T09:03:53.180Z,81.05
2022-11-05T09:06:24.029Z,80.83
2022-11-05T09:08:55.073Z,79.95
2022-11-05T09:11:37.750Z,80.16
2022-11-05T09:14:17.027Z,80.02
2022-11-05T09:16:48.072Z,79.39
2022-11-05T09:19:19.134Z,78.35
2022-11-05T09:21:48.509Z,78.26
2022-11-05T09:24:19.857Z,77.93
2022-11-05T09:26:54.483Z,77.49
2022-11-05T09:29:25.757Z,77.76
2022-11-05T09:31:56.821Z,77.95
2022-11-05T09:34:28.039Z,77.69
2022-11-05T09:36:59.179Z,77.84
2022-11-05T09:39:28.455Z,77.83
2022-11-05T09:42:06.143Z,77.24
2022-11-05T09:44:43.822Z,77.30
2022-11-05T09:47:20.434Z,76.13
2022-11-05T09:49:53.330Z,75.88
2022-11-05T09:52:29.494Z,75.99
2022-11-05T09:55:00.936Z,74.07
2022-11-05T09:57:37.854Z,75.32
2022-11-05T10:00:16.622Z,75.79
2022-11-05T10:02:52.543Z,75.70
2022-11-05T10:05:24.523Z,74.18
2022-11-05T10:07:58.756Z,73.69
2022-11-05T10:10:40.516Z,74.19
2022-11-05T10:13:23.197Z,73.79
2022-11-05T10:16:02.846Z,72.41
2022-11-05T10:18:37.549Z,72.79
2022-11-05T10:21:14.733Z,73.38
2022-11-05T10:23:46.663Z,73.12
2022-11-05T10:26:23.098Z,71.58
2022-11-05T10:28:54.719Z,71.26
2022-11-05T10:31:31.485Z,71.44
2022-11-05T10:34:08.026Z,69.43
2022-11-05T10:36:40.774Z,69.85
2022-11-05T10:39:15.798Z,71.25
2022-11-05T10:42:09.197Z,70.81
2022-11-05T10:44:45.328Z,71.65
2022-11-05T10:47:33.620Z,72.23
2022-11-05T10:50:11.262Z,72.28
2022-11-05T10:52:52.715Z,72.09
2022-11-05T10:55:26.646Z,72.34
2022-11-05T10:58:09.240Z,71.76
2022-11-05T11:00:41.117Z,72.42
2022-11-05T11:03:34.346Z,71.74
2022-11-05T11:06:07.816Z,71.54
2022-11-05T11:08:39.645Z,72.19
2022-11-05T11:11:14.681Z,72.34
2022-11-05T11:14:02.604Z,72.60
2022-11-05T11:16:38.306Z,72.09
2022-11-05T11:19:27.297Z,71.64
2022-11-05T11:25:02.278Z,70.48
2022-11-05T11:27:36.501Z,68.74
2022-11-05T11:30:18.135Z,69.38
2022-11-05T11:32:50.456Z,70.34
2022-11-05T11:35:26.813Z,71.42
2022-11-05T11:38:01.151Z,72.12
2022-11-05T11:40:34.837Z,73.06
2022-11-05T11:43:15.408Z,72.73
2022-11-05T11:45:50.924Z,72.55
2022-11-05T11:48:26.521Z,72.87
2022-11-05T11:50:59.040Z,73.15
2022-11-05T11:53:37.084Z,72.66
2022-11-05T11:56:18.198Z,72.32
2022-11-05T11:58:51.129Z,70.31
2022-11-05T12:01:44.629Z,68.83
2022-11-05T12:04:36.730Z,67.66
2022-11-05T12:07:17.782Z,66.85
2022-11-05T12:10:02.094Z,65.92
2022-11-05T12:12:40.733Z,66.65
2022-11-05T12:15:28.693Z,66.46
2022-11-05T12:18:03.691Z,64.48
2022-11-05T12:20:57.837Z,65.17
2022-11-05T12:23:52.681Z,64.80
2022-11-05T12:26:35.864Z,64.35
2022-11-05T12:29:36.901Z,64.44
2022-11-05T12:32:31.959Z,64.37
2022-11-05T12:35:15.374Z,65.78
2022-11-05T12:37:54.613Z,65.39
2022-11-05T12:40:43.657Z,64.46
2022-11-05T12:43:24.779Z,64.10
2022-11-05T12:46:02.509Z,65.11
2022-11-05T12:48:48.821Z,65.18
2022-11-05T12:51:32.257Z,65.71
2022-11-05T12:54:19.096Z,65.06
2022-11-05T12:56:54.547Z,65.49
2022-11-05T12:59:29.854Z,65.58
2022-11-05T13:02:09.704Z,64.83
2022-11-05T13:04:45.425Z,63.89
2022-11-05T13:07:23.084Z,64.07
2022-11-05T13:09:59.423Z,64.74
2022-11-05T13:12:34.381Z,64.80
2022-11-05T13:15:16.480Z,65.42
2022-11-05T13:17:55.096Z,65.24
2022-11-05T13:20:29.858Z,65.38
2022-11-05T13:23:07.136Z,65.81
2022-11-05T13:25:46.211Z,66.39
2022-11-05T13:28:22.539Z,66.45
2022-11-05T13:30:56.230Z,67.12
2022-11-05T13:33:33.076Z,66.74
2022-11-05T13:36:23.743Z,67.20
2022-11-05T13:39:01.389Z,67.75
2022-11-05T13:41:43.060Z,67.46
2022-11-05T13:44:35.633Z,67.60
2022-11-05T13:47:23.820Z,68.08
2022-11-05T13:50:14.594Z,67.77
2022-11-05T13:53:14.347Z,68.15
2022-11-05T13:56:02.914Z,68.51
2022-11-05T13:59:04.255Z,68.71
2022-11-05T14:01:52.061Z,68.50
2022-11-05T14:04:32.394Z,68.68
2022-11-05T14:07:17.772Z,68.52
2022-11-05T14:09:53.325Z,69.11
2022-11-05T14:12:28.949Z,69.45
2022-11-05T14:15:05.427Z,69.43
2022-11-05T14:17:57.576Z,69.90
2022-11-05T14:21:01.616Z,70.23
2022-11-05T14:23:52.612Z,70.38
2022-11-05T14:26:26.343Z,70.83
2022-11-05T14:29:22.083Z,71.12
2022-11-05T14:32:09.223Z,71.36
2022-11-05T14:34:47.609Z,71.50
2022-11-05T14:37:37.609Z,71.97
2022-11-05T14:40:34.177Z,72.48
2022-11-05T14:43:09.558Z,72.26
2022-11-05T14:45:43.035Z,72.48
2022-11-05T14:48:33.127Z,72.51
2022-11-05T14:51:17.980Z,72.36
2022-11-05T14:53:49.534Z,72.90
2022-11-05T14:56:21.387Z,73.06
2022-11-05T14:59:12.515Z,73.14
2022-11-05T15:01:59.028Z,73.40
2022-11-05T15:04:31.895Z,73.40
2022-11-05T15:07:37.560Z,73.54
2022-11-05T15:10:15.328Z,73.82
2022-11-05T15:12:50.083Z,73.81
2022-11-05T15:15:25.316Z,74.18
2022-11-05T15:18:03.809Z,74.22
2022-11-05T15:20:40.833Z,74.46
2022-11-05T15:23:16.568Z,75.05
2022-11-05T15:25:54.329Z,75.19
2022-11-05T15:28:28.254Z,75.61
2022-11-05T15:31:02.293Z,75.54
2022-11-05T15:33:33.912Z,75.44
2022-11-05T15:36:21.847Z,75.64
2022-11-05T15:39:22.943Z,76.25
2022-11-05T15:41:44.145Z,76.92
2022-11-05T15:44:28.389Z,77.34
2022-11-05T15:47:17.552Z,77.59
2022-11-05T15:49:50.829Z,77.86
2022-11-05T15:52:24.872Z,77.94
2022-11-05T15:55:20.773Z,78.14
2022-11-05T15:57:56.805Z,79.02
2022-11-05T16:00:30.108Z,79.45
2022-11-05T16:03:04.527Z,79.51
2022-11-05T16:05:42.930Z,79.69
2022-11-05T16:08:20.150Z,79.90
2022-11-05T16:10:51.109Z,80.03
2022-11-05T16:13:31.575Z,80.25
2022-11-05T16:16:06.010Z,80.65
2022-11-05T16:18:38.845Z,81.26
2022-11-05T16:21:12.095Z,81.31
2022-11-05T16:23:46.083Z,81.25
2022-11-05T16:29:31.323Z,81.37
2022-11-05T16:32:05.069Z,81.49
2022-11-05T16:34:40.118Z,81.50
2022-11-05T16:37:14.967Z,81.64
2022-11-05T16:39:45.956Z,81.77
2022-11-05T16:42:38.811Z,81.64
2022-11-05T16:45:14.934Z,81.56
2022-11-05T16:47:46.597Z,81.38
2022-11-05T16:50:25.329Z,81.40
2022-11-05T16:52:56.137Z,81.44
2022-11-05T16:55:25.762Z,81.74
2022-11-05T16:57:57.391Z,81.72
2022-11-05T17:00:28.835Z,81.79
2022-11-05T17:02:58.431Z,82.04
2022-11-05T17:05:32.235Z,82.06
2022-11-05T17:08:03.594Z,81.89
2022-11-05T17:10:34.556Z,81.97
2022-11-05T17:13:05.582Z,82.08
2022-11-05T17:15:36.071Z,82.18
2022-11-05T17:18:07.625Z,82.17
2022-11-05T17:20:41.602Z,82.31
2022-11-05T17:23:13.889Z,82.38
2022-11-05T17:25:49.058Z,82.57
2022-11-05T17:28:20.839Z,82.73
2022-11-05T17:30:53.363Z,82.53
2022-11-05T17:33:25.124Z,82.84
2022-11-05T17:35:56.685Z,82.80
2022-11-05T17:38:28.126Z,83.37
2022-11-05T17:40:59.192Z,83.56
2022-11-05T17:43:28.920Z,83.11
2022-11-05T17:46:04.259Z,82.28
2022-11-05T17:48:35.822Z,82.42
2022-11-05T17:51:09.639Z,82.45
2022-11-05T17:53:40.861Z,82.43
2022-11-05T17:56:13.277Z,82.72
2022-11-05T17:58:44.341Z,83.03
2022-11-05T18:01:27.853Z,82.99
2022-11-05T18:04:03.761Z,82.92
2022-11-05T18:06:39.959Z,83.04
2022-11-05T18:09:11.991Z,83.12
2022-11-05T18:11:44.073Z,83.48
2022-11-05T18:14:22.798Z,83.97
2022-11-05T18:16:55.450Z,84.21
2022-11-05T18:19:26.442Z,84.32
2022-11-05T18:21:57.347Z,84.62
2022-11-05T18:24:28.192Z,84.66
2022-11-05T18:26:59.007Z,84.59
2022-11-05T18:29:29.757Z,84.57
2022-11-05T18:32:00.710Z,84.41
2022-11-05T18:34:31.618Z,84.18
2022-11-05T18:37:02.530Z,84.02
2022-11-05T18:39:33.458Z,83.77
2022-11-05T18:42:04.578Z,83.70
2022-11-05T18:44:39.215Z,83.66
2022-11-05T18:47:10.519Z,83.63
2022-11-05T18:49:41.586Z,83.65
2022-11-05T18:52:12.822Z,83.69
2022-11-05T18:54:42.375Z,83.59
2022-11-05T18:57:13.053Z,83.55
2022-11-05T18:59:46.823Z,83.58
2022-11-05T19:02:18.563Z,83.61
2022-11-05T19:05:14.061Z,83.44
2022-11-05T19:07:41.347Z,83.57
2022-11-05T19:10:12.313Z,83.68
2022-11-05T19:12:43.380Z,83.33
2022-11-05T19:15:14.677Z,83.18
2022-11-05T19:17:45.882Z,82.98
2022-11-05T19:20:17.277Z,83.16
2022-11-05T19:22:48.480Z,83.10
2022-11-05T19:25:19.420Z,83.39
2022-11-05T19:27:50.822Z,83.27
2022-11-05T19:30:22.030Z,83.44
2022-11-05T19:32:53.163Z,83.44
2022-11-05T19:35:24.332Z,83.78
2022-11-05T19:37:56.269Z,84.02
2022-11-05T19:40:27.518Z,83.91
2022-11-05T19:42:57.033Z,83.63
2022-11-05T19:45:44.009Z,83.48
2022-11-05T19:48:19.460Z,83.36
2022-11-05T19:50:50.687Z,82.93
2022-11-05T19:53:21.598Z,82.92
2022-11-05T19:55:52.491Z,82.86
2022-11-05T19:58:23.391Z,82.83
2022-11-05T20:00:55.957Z,82.83
2022-11-05T20:03:26.987Z,82.73
2022-11-05T20:06:02.083Z,82.51
2022-11-05T20:08:43.277Z,82.60
2022-11-05T20:11:24.422Z,82.72
2022-11-05T20:13:55.588Z,82.79
2022-11-05T20:16:28.924Z,82.46
2022-11-05T20:19:00.047Z,82.60
2022-11-05T20:21:29.547Z,82.69
2022-11-05T20:24:00.782Z,82.67
2022-11-05T20:26:30.441Z,82.51
2022-11-05T20:29:01.431Z,82.86
2022-11-05T20:31:33.101Z,83.12
2022-11-05T20:34:04.318Z,83.11
2022-11-05T20:36:35.514Z,83.25
2022-11-05T20:39:06.625Z,83.14
2022-11-05T20:41:37.600Z,82.88
2022-11-05T20:44:08.742Z,82.92
2022-11-05T20:46:39.549Z,83.00
2022-11-05T20:49:10.418Z,83.14
2022-11-05T20:51:41.579Z,83.16
2022-11-05T20:54:13.101Z,83.21
2022-11-05T20:56:44.572Z,83.35
2022-11-05T20:59:15.360Z,83.17
2022-11-05T21:01:46.738Z,83.04
2022-11-05T21:04:17.875Z,82.72
2022-11-05T21:06:49.149Z,82.73
2022-11-05T21:09:18.808Z,82.68
2022-11-05T21:12:07.744Z,82.78
2022-11-05T21:14:39.034Z,82.96
2022-11-05T21:17:11.592Z,83.16
2022-11-05T21:19:42.749Z,83.02
2022-11-05T21:22:16.056Z,82.98
2022-11-05T21:24:47.170Z,82.90
2022-11-05T21:27:16.691Z,82.91
2022-11-05T21:29:47.660Z,82.88
2022-11-05T21:32:18.501Z,82.91
2022-11-05T21:34:49.585Z,82.88
2022-11-05T21:37:21.076Z,83.15
2022-11-05T21:39:52.585Z,83.16
2022-11-05T21:42:23.683Z,83.16
2022-11-05T21:45:00.072Z,83.45
2022-11-05T21:47:31.719Z,83.83
2022-11-05T21:50:01.266Z,84.02
2022-11-05T21:52:49.879Z,84.06
2022-11-05T21:55:38.815Z,84.29
2022-11-05T21:58:32.685Z,84.12
2022-11-05T22:01:04.780Z,84.25
2022-11-05T22:03:35.687Z,84.33
2022-11-05T22:06:06.933Z,84.24
2022-11-05T22:08:37.886Z,84.16
2022-11-05T22:11:10.360Z,84.20
2022-11-05T22:13:41.546Z,84.16
2022-11-05T22:16:12.695Z,84.16
2022-11-05T22:18:43.725Z,84.02
2022-11-05T22:21:19.340Z,83.98
2022-11-05T22:23:50.738Z,84.13
2022-11-05T22:26:22.082Z,84.36
2022-11-05T22:28:53.978Z,84.30
2022-11-05T22:31:25.287Z,84.36
2022-11-05T22:33:56.150Z,84.45
2022-11-05T22:36:27.550Z,84.21
2022-11-05T22:38:58.787Z,84.06
2022-11-05T22:41:29.724Z,83.93
2022-11-05T22:44:00.995Z,84.03
2022-11-05T22:46:32.174Z,84.48
2022-11-05T22:49:03.567Z,84.38
2022-11-05T22:51:37.721Z,84.48
2022-11-05T22:54:09.598Z,84.49
2022-11-05T22:56:42.807Z,84.27
2022-11-05T22:59:16.320Z,84.23
2022-11-05T23:01:47.916Z,84.10
2022-11-05T23:04:22.188Z,84.22
2022-11-05T23:07:11.189Z,83.96
2022-11-05T23:09:59.850Z,84.13
2022-11-05T23:12:33.221Z,84.03
2022-11-05T23:15:06.429Z,83.98
2022-11-05T23:17:55.072Z,83.88
2022-11-05T23:20:43.697Z,83.77
2022-11-05T23:23:33.049Z,83.79
2022-11-05T23:26:24.735Z,83.95
2022-11-05T23:28:55.782Z,83.75
2022-11-05T23:31:52.854Z,83.87
2022-11-05T23:34:23.739Z,84.05
2022-11-05T23:37:11.897Z,84.02
2022-11-05T23:39:43.111Z,83.91
2022-11-05T23:42:32.167Z,84.08
2022-11-05T23:45:25.364Z,84.10
2022-11-05T23:48:14.174Z,84.24
2022-11-05T23:50:46.215Z,84.43
2022-11-05T23:53:17.285Z,84.65
2022-11-05T23:55:48.302Z,84.66
2022-11-05T23:58:20.081Z,84.30
